createdAt,value
2019-02-21T00:01:37.237Z,29.48
2019-02-21T00:04:06.931Z,27.25
2019-02-21T00:06:36.528Z,26.02
2019-02-21T00:09:08.098Z,27.52
2019-02-21T00:11:37.452Z,23.95
2019-02-21T00:14:06.759Z,26.48
2019-02-21T00:16:36.146Z,25.90
2019-02-21T00:19:05.803Z,27.65
2019-02-21T00:21:35.399Z,26.60
2019-02-21T00:24:04.762Z,24.55
2019-02-21T00:26:34.094Z,29.30
2019-02-21T00:29:03.461Z,28.90
2019-02-21T00:31:33.140Z,28.50
2019-02-21T00:34:02.442Z,27.48
2019-02-21T00:36:31.753Z,25.32
2019-02-21T00:39:01.400Z,28.00
2019-02-21T00:41:31.030Z,28.42
2019-02-21T00:44:00.630Z,26.35
2019-02-21T00:46:30.006Z,25.15
2019-02-21T00:48:59.295Z,26.15
2019-02-21T00:51:28.940Z,26.87
2019-02-21T00:53:58.296Z,24.85
2019-02-21T00:56:27.856Z,26.45
2019-02-21T00:59:00.749Z,27.27
2019-02-21T01:01:30.137Z,27.10
2019-02-21T01:03:59.519Z,26.70
2019-02-21T01:06:29.158Z,25.62
2019-02-21T01:08:58.553Z,25.90
2019-02-21T01:11:27.895Z,23.87
2019-02-21T01:13:57.179Z,27.27
2019-02-21T01:16:26.546Z,25.62
2019-02-21T01:18:55.858Z,25.17
2019-02-21T01:21:25.164Z,25.35
2019-02-21T01:23:54.532Z,25.35
2019-02-21T01:26:23.829Z,23.95
2019-02-21T01:28:53.155Z,25.00
2019-02-21T01:31:22.524Z,24.40
2019-02-21T01:33:51.878Z,23.60
2019-02-21T01:36:21.459Z,26.97
2019-02-21T01:38:50.823Z,28.17
2019-02-21T01:41:20.200Z,24.65
2019-02-21T01:43:49.517Z,25.15
2019-02-21T01:46:18.904Z,26.20
2019-02-21T01:48:48.292Z,26.20
2019-02-21T01:51:17.882Z,25.40
2019-02-21T01:53:47.304Z,27.27
2019-02-21T01:56:16.629Z,23.47
2019-02-21T01:58:45.945Z,26.82
2019-02-21T02:01:15.317Z,24.65
2019-02-21T02:03:44.637Z,23.90
2019-02-21T02:06:14.303Z,23.67
2019-02-21T02:08:43.700Z,24.72
2019-02-21T02:11:13.354Z,25.27
2019-02-21T02:13:42.918Z,23.98
2019-02-21T02:16:12.300Z,23.95
2019-02-21T02:18:41.622Z,22.77
2019-02-21T02:21:11.225Z,24.07
2019-02-21T02:23:40.632Z,22.10
2019-02-21T02:26:09.945Z,23.22
2019-02-21T02:28:39.250Z,22.52
2019-02-21T02:31:21.587Z,25.02
2019-02-21T02:33:41.101Z,24.23
2019-02-21T02:36:10.406Z,23.92
2019-02-21T02:38:40.006Z,23.30
2019-02-21T02:41:09.388Z,22.73
2019-02-21T02:43:38.694Z,26.55
2019-02-21T02:46:08.080Z,24.12
2019-02-21T02:48:37.392Z,22.05
2019-02-21T02:51:06.701Z,24.65
2019-02-21T02:53:36.080Z,25.75
2019-02-21T02:56:05.418Z,24.55
2019-02-21T02:58:34.747Z,26.25
2019-02-21T03:01:04.247Z,23.92
2019-02-21T03:03:36.239Z,24.10
2019-02-21T03:06:05.716Z,23.40
2019-02-21T03:08:35.083Z,26.02
2019-02-21T03:11:04.414Z,24.95
2019-02-21T03:13:33.760Z,28.80
2019-02-21T03:16:03.409Z,25.82
2019-02-21T03:18:32.713Z,26.50
2019-02-21T03:21:02.015Z,24.65
2019-02-21T03:23:31.462Z,26.93
2019-02-21T03:26:00.834Z,25.50
2019-02-21T03:28:30.110Z,27.27
2019-02-21T03:30:59.923Z,25.48
2019-02-21T03:33:29.226Z,25.32
2019-02-21T03:35:58.565Z,26.23
2019-02-21T03:38:27.931Z,26.25
2019-02-21T03:40:57.326Z,25.02
2019-02-21T03:43:26.929Z,23.80
2019-02-21T03:45:56.286Z,26.68
2019-02-21T03:48:25.593Z,24.95
2019-02-21T03:50:54.932Z,23.50
2019-02-21T03:53:24.365Z,25.02
2019-02-21T03:55:54.037Z,27.73
2019-02-21T03:58:23.347Z,27.48
2019-02-21T04:00:52.778Z,28.27
2019-02-21T04:03:22.132Z,27.95
2019-02-21T04:05:51.443Z,25.25
2019-02-21T04:08:20.847Z,26.70
2019-02-21T04:10:50.159Z,30.50
2019-02-21T04:13:19.769Z,29.05
2019-02-21T04:15:49.199Z,29.57
2019-02-21T04:18:18.909Z,27.65
2019-02-21T04:20:48.246Z,33.53
2019-02-21T04:23:17.605Z,27.15
2019-02-21T04:25:46.945Z,32.63
2019-02-21T04:28:16.314Z,29.50
2019-02-21T04:30:45.679Z,31.77
2019-02-21T04:33:14.977Z,29.87
2019-02-21T04:35:44.295Z,28.95
2019-02-21T04:38:14.023Z,30.08
2019-02-21T04:40:43.323Z,30.80
2019-02-21T04:43:15.721Z,31.57
2019-02-21T04:45:45.105Z,31.62
2019-02-21T04:48:14.416Z,35.38
2019-02-21T04:50:43.733Z,32.70
2019-02-21T04:53:13.320Z,34.33
2019-02-21T04:55:42.622Z,35.92
2019-02-21T04:58:11.927Z,30.57
2019-02-21T05:00:41.561Z,34.15
2019-02-21T05:03:10.902Z,36.10
2019-02-21T05:05:40.236Z,33.70
2019-02-21T05:08:09.609Z,40.52
2019-02-21T05:10:38.906Z,38.95
2019-02-21T05:13:08.516Z,37.95
2019-02-21T05:15:37.853Z,36.58
2019-02-21T05:18:07.168Z,34.63
2019-02-21T05:20:36.513Z,35.73
2019-02-21T05:23:05.926Z,40.10
2019-02-21T05:25:35.519Z,37.28
2019-02-21T05:28:23.501Z,39.42
2019-02-21T05:30:56.896Z,42.20
2019-02-21T05:33:36.641Z,37.17
2019-02-21T05:36:07.924Z,34.58
2019-02-21T05:38:39.211Z,43.35
2019-02-21T05:41:13.170Z,38.63
2019-02-21T05:43:44.104Z,37.17
2019-02-21T05:46:15.048Z,39.50
2019-02-21T05:48:48.433Z,34.58
2019-02-21T05:51:22.358Z,40.67
2019-02-21T05:53:56.444Z,38.60
2019-02-21T05:56:30.142Z,38.10
2019-02-21T05:59:01.172Z,40.35
2019-02-21T06:01:44.005Z,37.00
2019-02-21T06:04:27.210Z,38.13
2019-02-21T06:07:14.575Z,40.88
2019-02-21T06:09:48.464Z,40.48
2019-02-21T06:12:19.751Z,38.55
2019-02-21T06:14:53.363Z,34.55
2019-02-21T06:17:27.074Z,42.35
2019-02-21T06:20:04.344Z,42.40
2019-02-21T06:22:35.365Z,38.63
2019-02-21T06:25:06.669Z,41.88
2019-02-21T06:27:38.202Z,48.52
2019-02-21T06:30:28.410Z,39.15
2019-02-21T06:33:05.112Z,42.73
2019-02-21T06:35:28.780Z,37.35
2019-02-21T06:37:58.129Z,40.50
2019-02-21T06:40:27.498Z,36.85
2019-02-21T06:42:56.794Z,36.10
2019-02-21T06:45:26.418Z,39.83
2019-02-21T06:47:56.019Z,36.68
2019-02-21T06:50:27.044Z,38.23
2019-02-21T06:52:56.434Z,43.42
2019-02-21T06:55:26.079Z,39.50
2019-02-21T06:57:55.686Z,39.58
2019-02-21T07:00:25.052Z,39.23
2019-02-21T07:02:54.706Z,44.48
2019-02-21T07:05:24.015Z,46.37
2019-02-21T07:07:53.415Z,42.80
2019-02-21T07:10:22.730Z,42.60
2019-02-21T07:12:52.042Z,43.98
2019-02-21T07:15:21.742Z,36.42
2019-02-21T07:17:51.084Z,43.15
2019-02-21T07:20:20.406Z,39.23
2019-02-21T07:22:50.146Z,39.83
2019-02-21T07:25:23.788Z,39.38
2019-02-21T07:27:53.101Z,41.58
2019-02-21T07:30:23.270Z,42.13
2019-02-21T07:32:52.741Z,37.85
2019-02-21T07:35:22.066Z,37.60
2019-02-21T07:37:51.672Z,41.37
2019-02-21T07:40:20.981Z,40.55
2019-02-21T07:42:50.555Z,39.08
2019-02-21T07:45:19.954Z,39.92
2019-02-21T07:47:49.257Z,41.23
2019-02-21T07:50:18.596Z,42.45
2019-02-21T07:52:48.277Z,41.23
2019-02-21T07:55:17.582Z,37.83
2019-02-21T07:57:46.931Z,39.05
2019-02-21T08:00:16.592Z,34.75
2019-02-21T08:02:46.209Z,43.45
2019-02-21T08:05:15.654Z,38.15
2019-02-21T08:07:45.036Z,43.23
2019-02-21T08:10:14.341Z,42.85
2019-02-21T08:12:44.017Z,42.33
2019-02-21T08:15:14.286Z,39.88
2019-02-21T08:17:43.617Z,41.58
2019-02-21T08:20:13.597Z,44.40
2019-02-21T08:22:43.004Z,35.20
2019-02-21T08:25:12.335Z,41.95
2019-02-21T08:27:42.609Z,43.48
2019-02-21T08:30:16.207Z,40.12
2019-02-21T08:33:03.338Z,40.95
2019-02-21T08:35:33.110Z,38.78
2019-02-21T08:38:02.502Z,39.40
2019-02-21T08:40:31.810Z,40.03
2019-02-21T08:43:03.950Z,40.83
2019-02-21T08:45:32.273Z,46.37
2019-02-21T08:48:01.856Z,45.85
2019-02-21T08:50:31.201Z,45.67
2019-02-21T08:53:01.104Z,47.33
2019-02-21T08:55:30.681Z,36.60
2019-02-21T08:58:00.059Z,40.98
2019-02-21T09:00:31.469Z,41.98
2019-02-21T09:03:00.500Z,38.17
2019-02-21T09:05:29.876Z,39.63
2019-02-21T09:07:59.215Z,38.30
2019-02-21T09:10:28.594Z,40.12
2019-02-21T09:12:57.958Z,36.80
2019-02-21T09:15:27.317Z,38.65
2019-02-21T09:17:56.946Z,38.78
2019-02-21T09:20:26.652Z,39.75
2019-02-21T09:22:55.965Z,41.55
2019-02-21T09:25:25.544Z,36.83
2019-02-21T09:27:54.999Z,42.53
2019-02-21T09:30:24.286Z,39.08
2019-02-21T09:32:53.593Z,36.73
2019-02-21T09:35:23.214Z,39.38
2019-02-21T09:37:52.542Z,36.05
2019-02-21T09:40:21.874Z,37.38
2019-02-21T09:42:52.931Z,38.58
2019-02-21T09:45:22.270Z,39.75
2019-02-21T09:47:51.637Z,40.63
2019-02-21T09:50:20.972Z,39.48
2019-02-21T09:52:50.273Z,39.20
2019-02-21T09:55:19.619Z,40.05
2019-02-21T09:57:48.992Z,39.55
2019-02-21T10:00:22.526Z,41.18
2019-02-21T10:02:55.593Z,32.67
2019-02-21T10:05:23.223Z,39.50
2019-02-21T10:07:52.536Z,37.08
2019-02-21T10:10:22.617Z,40.65
2019-02-21T10:12:52.008Z,36.95
2019-02-21T10:15:21.405Z,42.75
2019-02-21T10:17:51.044Z,40.75
2019-02-21T10:20:23.723Z,39.20
2019-02-21T10:22:53.008Z,40.83
2019-02-21T10:25:26.398Z,36.40
2019-02-21T10:27:58.814Z,46.13
2019-02-21T10:30:28.261Z,40.43
2019-02-21T10:32:57.574Z,37.13
2019-02-21T10:35:28.471Z,35.08
2019-02-21T10:37:58.095Z,38.73
2019-02-21T10:40:27.398Z,41.98
2019-02-21T10:42:56.826Z,39.88
2019-02-21T10:45:26.203Z,33.02
2019-02-21T10:47:55.506Z,36.63
2019-02-21T10:50:25.216Z,36.38
2019-02-21T10:52:54.814Z,41.88
2019-02-21T10:55:24.417Z,37.83
2019-02-21T10:57:53.833Z,39.50
2019-02-21T11:00:29.866Z,39.58
2019-02-21T11:02:59.528Z,38.85
2019-02-21T11:05:28.837Z,39.42
2019-02-21T11:07:58.176Z,36.98
2019-02-21T11:10:31.162Z,42.62
2019-02-21T11:13:00.473Z,34.83
2019-02-21T11:15:30.032Z,38.65
2019-02-21T11:17:59.704Z,33.30
2019-02-21T11:20:29.028Z,34.83
2019-02-21T11:22:58.344Z,31.70
2019-02-21T11:25:28.016Z,39.15
2019-02-21T11:27:57.362Z,35.23
2019-02-21T11:30:26.765Z,34.67
2019-02-21T11:32:56.136Z,33.10
2019-02-21T11:35:25.460Z,32.05
2019-02-21T11:37:54.810Z,33.67
2019-02-21T11:40:24.516Z,30.02
2019-02-21T11:42:54.140Z,35.78
2019-02-21T11:45:23.453Z,31.95
2019-02-21T11:47:53.130Z,27.05
2019-02-21T11:50:22.749Z,22.87
2019-02-21T11:52:52.150Z,30.45
2019-02-21T11:55:26.602Z,25.25
2019-02-21T11:57:55.938Z,29.27
2019-02-21T12:00:33.296Z,30.37
2019-02-21T12:03:02.619Z,29.37
2019-02-21T12:05:32.408Z,26.93
2019-02-21T12:08:01.792Z,25.27
2019-02-21T12:10:31.405Z,29.60
2019-02-21T12:13:00.722Z,26.55
2019-02-21T12:15:30.209Z,29.75
2019-02-21T12:17:59.602Z,29.72
2019-02-21T12:20:29.230Z,30.27
2019-02-21T12:22:58.601Z,28.38
2019-02-21T12:25:27.958Z,31.05
2019-02-21T12:27:57.621Z,28.20
2019-02-21T12:30:26.990Z,24.77
2019-02-21T12:32:59.044Z,25.70
2019-02-21T12:35:29.952Z,26.45
2019-02-21T12:37:59.507Z,25.72
2019-02-21T12:40:28.836Z,26.82
2019-02-21T12:42:58.158Z,30.92
2019-02-21T12:45:30.078Z,30.20
2019-02-21T12:47:59.039Z,33.40
2019-02-21T12:50:28.427Z,32.88
2019-02-21T12:52:58.154Z,28.05
2019-02-21T12:55:31.446Z,32.45
2019-02-21T12:57:58.544Z,41.05
2019-02-21T13:00:27.905Z,34.78
2019-02-21T13:02:57.227Z,32.48
2019-02-21T13:05:26.578Z,31.40
2019-02-21T13:07:55.971Z,32.85
2019-02-21T13:10:25.751Z,33.30
2019-02-21T13:12:55.080Z,34.13
2019-02-21T13:15:24.460Z,33.65
2019-02-21T13:17:54.053Z,31.80
2019-02-21T13:20:23.393Z,31.85
2019-02-21T13:22:52.799Z,29.98
2019-02-21T13:25:22.137Z,27.85
2019-02-21T13:27:51.457Z,30.30
2019-02-21T13:30:20.930Z,28.80
2019-02-21T13:32:50.314Z,28.60
2019-02-21T13:35:19.637Z,26.60
2019-02-21T13:37:49.276Z,32.30
2019-02-21T13:40:21.226Z,26.05
2019-02-21T13:42:50.358Z,27.10
2019-02-21T13:45:20.050Z,26.57
2019-02-21T13:47:49.439Z,27.22
2019-02-21T13:50:23.706Z,27.05
2019-02-21T13:52:52.103Z,30.55
2019-02-21T13:55:21.429Z,27.60
2019-02-21T13:57:50.830Z,29.32
2019-02-21T14:00:24.819Z,22.65
2019-02-21T14:02:54.156Z,25.88
2019-02-21T14:05:23.505Z,24.15
2019-02-21T14:07:52.887Z,28.45
2019-02-21T14:10:22.205Z,24.77
2019-02-21T14:12:54.200Z,25.65
2019-02-21T14:15:29.453Z,26.15
2019-02-21T14:17:58.830Z,29.07
2019-02-21T14:20:28.463Z,24.90
2019-02-21T14:22:58.071Z,22.85
2019-02-21T14:25:28.313Z,24.32
2019-02-21T14:27:58.436Z,25.00
2019-02-21T14:30:28.139Z,27.75
2019-02-21T14:32:57.443Z,24.80
2019-02-21T14:35:26.817Z,25.12
2019-02-21T14:37:56.211Z,29.07
2019-02-21T14:40:25.542Z,25.68
2019-02-21T14:42:54.856Z,28.47
2019-02-21T14:45:26.483Z,27.73
2019-02-21T14:47:56.205Z,31.87
2019-02-21T14:50:25.520Z,29.72
2019-02-21T14:52:55.026Z,28.30
2019-02-21T14:55:24.352Z,26.60
2019-02-21T14:57:53.684Z,22.80
2019-02-21T15:00:29.059Z,27.90
2019-02-21T15:02:58.387Z,29.02
2019-02-21T15:05:27.700Z,29.15
2019-02-21T15:07:57.144Z,28.40
2019-02-21T15:10:26.478Z,29.65
2019-02-21T15:12:56.073Z,32.25
2019-02-21T15:15:27.331Z,30.17
2019-02-21T15:18:06.879Z,26.42
2019-02-21T15:20:36.194Z,29.82
2019-02-21T15:22:59.334Z,31.33
2019-02-21T15:25:28.907Z,26.73
2019-02-21T15:27:58.519Z,30.43
2019-02-21T15:30:28.434Z,31.97
2019-02-21T15:32:57.757Z,32.98
2019-02-21T15:35:27.080Z,29.92
2019-02-21T15:37:56.753Z,29.92
2019-02-21T15:40:26.073Z,27.10
2019-02-21T15:42:55.441Z,30.70
2019-02-21T15:45:28.691Z,33.38
2019-02-21T15:47:58.397Z,34.23
2019-02-21T15:50:27.696Z,28.67
2019-02-21T15:52:57.819Z,33.65
2019-02-21T15:55:27.193Z,29.67
2019-02-21T15:58:03.844Z,33.73
2019-02-21T16:00:27.666Z,27.77
2019-02-21T16:02:56.985Z,29.70
2019-02-21T16:05:26.409Z,36.80
2019-02-21T16:07:56.174Z,30.62
2019-02-21T16:10:29.958Z,34.83
2019-02-21T16:12:59.623Z,32.28
2019-02-21T16:15:29.436Z,35.92
2019-02-21T16:17:58.767Z,31.35
2019-02-21T16:20:28.115Z,37.30
2019-02-21T16:22:57.499Z,30.62
2019-02-21T16:25:32.192Z,33.30
2019-02-21T16:28:01.524Z,31.70
2019-02-21T16:30:30.905Z,29.72
2019-02-21T16:33:00.266Z,31.95
2019-02-21T16:35:29.879Z,34.13
2019-02-21T16:38:02.181Z,33.33
2019-02-21T16:40:31.221Z,34.33
2019-02-21T16:43:00.531Z,34.13
2019-02-21T16:45:42.434Z,36.65
2019-02-21T16:48:00.995Z,31.00
2019-02-21T16:50:30.499Z,36.05
2019-02-21T16:52:59.869Z,39.40
2019-02-21T16:55:29.251Z,35.35
2019-02-21T16:57:58.581Z,32.48
2019-02-21T17:00:38.922Z,35.40
2019-02-21T17:02:59.378Z,36.05
2019-02-21T17:05:28.769Z,36.13
2019-02-21T17:07:58.171Z,40.60
2019-02-21T17:10:27.529Z,32.05
2019-02-21T17:12:56.869Z,34.48
2019-02-21T17:15:26.241Z,32.40
2019-02-21T17:17:55.563Z,35.05
2019-02-21T17:20:25.717Z,31.57
2019-02-21T17:22:55.144Z,34.00
2019-02-21T17:25:24.470Z,38.17
2019-02-21T17:27:53.783Z,33.05
2019-02-21T17:30:23.662Z,32.75
2019-02-21T17:32:52.975Z,33.30
2019-02-21T17:35:22.310Z,34.70
2019-02-21T17:37:52.020Z,32.83
2019-02-21T17:40:26.360Z,33.90
2019-02-21T17:42:55.722Z,34.83
2019-02-21T17:45:25.442Z,38.83
2019-02-21T17:47:54.765Z,34.27
2019-02-21T17:50:24.349Z,39.03
2019-02-21T17:52:53.730Z,34.20
2019-02-21T17:55:23.057Z,35.63
2019-02-21T17:57:52.370Z,35.65
2019-02-21T18:00:37.867Z,34.65
2019-02-21T18:03:07.170Z,41.20
2019-02-21T18:05:36.488Z,37.83
2019-02-21T18:08:06.130Z,39.08
2019-02-21T18:10:35.447Z,41.58
2019-02-21T18:13:04.834Z,39.85
2019-02-21T18:15:34.456Z,39.58
2019-02-21T18:18:03.883Z,40.28
2019-02-21T18:20:33.473Z,37.15
2019-02-21T18:23:02.853Z,39.23
2019-02-21T18:25:46.105Z,39.35
2019-02-21T18:28:15.512Z,42.17
2019-02-21T18:30:45.149Z,34.92
2019-02-21T18:33:14.421Z,36.95
2019-02-21T18:35:43.918Z,37.17
2019-02-21T18:38:13.273Z,39.78
2019-02-21T18:40:42.603Z,38.98
2019-02-21T18:43:12.001Z,44.75
2019-02-21T18:45:41.381Z,39.70
2019-02-21T18:48:10.729Z,42.10
2019-02-21T18:50:40.101Z,57.88
2019-02-21T18:53:09.421Z,42.33
2019-02-21T18:55:38.745Z,41.92
2019-02-21T18:58:08.449Z,39.55
2019-02-21T19:00:37.818Z,36.93
2019-02-21T19:03:07.248Z,37.25
2019-02-21T19:05:36.950Z,39.03
2019-02-21T19:08:06.350Z,39.73
2019-02-21T19:10:35.831Z,36.83
2019-02-21T19:13:07.634Z,37.88
2019-02-21T19:15:36.484Z,34.33
2019-02-21T19:18:08.994Z,40.88
2019-02-21T19:20:38.397Z,38.28
2019-02-21T19:23:07.708Z,41.95
2019-02-21T19:25:37.105Z,48.10
2019-02-21T19:28:06.508Z,41.25
2019-02-21T19:30:52.500Z,40.73
2019-02-21T19:33:24.762Z,35.20
2019-02-21T19:35:54.477Z,39.90
2019-02-21T19:38:23.800Z,40.03
2019-02-21T19:40:53.177Z,35.88
2019-02-21T19:43:22.765Z,35.17
2019-02-21T19:45:52.365Z,34.83
2019-02-21T19:48:21.803Z,41.75
2019-02-21T19:50:51.116Z,36.28
2019-02-21T19:53:20.775Z,37.25
2019-02-21T19:55:50.136Z,37.45
2019-02-21T19:58:19.447Z,43.45
2019-02-21T20:00:49.212Z,40.48
2019-02-21T20:03:18.681Z,35.98
2019-02-21T20:05:48.418Z,34.83
2019-02-21T20:08:21.499Z,40.50
2019-02-21T20:10:48.825Z,37.80
2019-02-21T20:13:18.247Z,36.05
2019-02-21T20:15:47.595Z,36.75
2019-02-21T20:18:16.968Z,35.30
2019-02-21T20:20:46.291Z,32.42
2019-02-21T20:23:15.976Z,33.58
2019-02-21T20:25:45.383Z,35.40
2019-02-21T20:28:14.736Z,31.65
2019-02-21T20:30:44.089Z,33.50
2019-02-21T20:33:13.597Z,32.88
2019-02-21T20:35:42.964Z,36.40
2019-02-21T20:38:12.286Z,36.40
2019-02-21T20:40:41.818Z,31.68
2019-02-21T20:43:11.225Z,32.17
2019-02-21T20:45:51.893Z,29.32
2019-02-21T20:48:12.112Z,33.92
2019-02-21T20:50:41.468Z,28.60
2019-02-21T20:53:10.795Z,32.30
2019-02-21T20:55:43.659Z,30.55
2019-02-21T20:58:11.819Z,33.08
2019-02-21T21:00:42.046Z,32.42
2019-02-21T21:03:11.414Z,30.17
2019-02-21T21:05:40.723Z,29.95
2019-02-21T21:08:10.458Z,31.10
2019-02-21T21:10:39.857Z,32.28
2019-02-21T21:13:09.171Z,34.13
2019-02-21T21:15:38.493Z,31.50
2019-02-21T21:18:07.863Z,30.65
2019-02-21T21:20:37.176Z,32.75
2019-02-21T21:23:06.487Z,30.57
2019-02-21T21:25:35.944Z,34.63
2019-02-21T21:28:05.399Z,31.57
2019-02-21T21:30:34.717Z,30.40
2019-02-21T21:33:04.085Z,29.95
2019-02-21T21:35:33.415Z,28.85
2019-02-21T21:38:03.057Z,33.10
2019-02-21T21:40:32.537Z,31.80
2019-02-21T21:43:01.863Z,31.48
2019-02-21T21:45:31.171Z,35.40
2019-02-21T21:48:00.562Z,31.20
2019-02-21T21:50:30.160Z,32.80
2019-02-21T21:52:59.474Z,34.18
2019-02-21T21:55:29.168Z,32.95
2019-02-21T21:57:58.489Z,32.45
2019-02-21T22:00:27.867Z,34.53
2019-02-21T22:02:57.476Z,33.73
2019-02-21T22:05:27.099Z,32.28
2019-02-21T22:07:56.703Z,39.33
2019-02-21T22:10:26.302Z,33.38
2019-02-21T22:12:55.629Z,33.28
2019-02-21T22:15:25.612Z,30.48
2019-02-21T22:17:55.235Z,32.93
2019-02-21T22:20:24.850Z,31.68
2019-02-21T22:22:54.223Z,31.65
2019-02-21T22:25:23.933Z,30.75
2019-02-21T22:27:53.179Z,36.03
2019-02-21T22:30:22.563Z,33.70
2019-02-21T22:32:52.239Z,33.88
2019-02-21T22:35:21.538Z,37.38
2019-02-21T22:37:50.951Z,39.30
2019-02-21T22:40:21.707Z,37.10
2019-02-21T22:42:51.335Z,36.53
2019-02-21T22:45:20.664Z,34.85
2019-02-21T22:47:50.321Z,38.58
2019-02-21T22:50:20.799Z,31.07
2019-02-21T22:52:50.112Z,33.45
2019-02-21T22:55:19.467Z,36.10
2019-02-21T22:57:48.768Z,39.73
2019-02-21T23:00:40.053Z,32.93
2019-02-21T23:03:12.053Z,35.28
2019-02-21T23:06:03.448Z,38.38
2019-02-21T23:08:44.005Z,38.67
2019-02-21T23:11:13.962Z,35.60
2019-02-21T23:13:43.657Z,35.05
2019-02-21T23:16:13.038Z,39.50
2019-02-21T23:18:42.433Z,35.68
2019-02-21T23:21:12.055Z,38.73
2019-02-21T23:23:41.369Z,33.58
2019-02-21T23:26:11.720Z,36.77
2019-02-21T23:28:41.408Z,37.03
2019-02-21T23:31:10.785Z,34.05
2019-02-21T23:33:58.176Z,37.58
2019-02-21T23:36:27.482Z,36.28
2019-02-21T23:38:56.791Z,33.50
2019-02-21T23:41:26.150Z,36.23
2019-02-21T23:43:55.496Z,33.13
2019-02-21T23:46:24.901Z,36.13
2019-02-21T23:48:54.277Z,35.90
2019-02-21T23:51:23.587Z,34.83
2019-02-21T23:54:02.729Z,38.98
2019-02-21T23:56:24.000Z,39.83
2019-02-21T23:58:53.316Z,36.83
